createdAt,value
2019-03-23T06:50:38.902Z,73.10
2019-03-23T06:55:45.258Z,80.20
2019-03-23T07:00:51.852Z,65.53
2019-03-23T07:06:02.537Z,63.17
2019-03-23T07:11:09.704Z,66.30
2019-03-23T07:16:16.698Z,62.13
2019-03-23T07:21:25.429Z,60.83
2019-03-23T07:26:34.733Z,64.10
2019-03-23T07:31:43.782Z,59.80
2019-03-23T07:36:50.139Z,58.23
2019-03-23T07:41:58.871Z,65.93
2019-03-23T07:47:06.777Z,63.33
2019-03-23T07:52:13.691Z,77.77
2019-03-23T07:57:21.026Z,47.73
2019-03-23T08:02:28.488Z,42.20
2019-03-23T08:07:37.349Z,38.17
2019-03-23T08:12:45.208Z,37.60
2019-03-23T08:17:51.456Z,43.23
2019-03-23T08:22:58.588Z,33.80
2019-03-23T08:28:05.842Z,45.30
2019-03-23T08:33:13.143Z,33.23
2019-03-23T08:38:19.728Z,34.40
2019-03-23T08:43:26.285Z,35.37
2019-03-23T08:48:32.976Z,31.10
2019-03-23T08:53:38.474Z,31.60
2019-03-23T08:58:41.981Z,29.30
2019-03-23T09:03:52.837Z,28.57
2019-03-23T09:08:59.701Z,33.90
2019-03-23T09:14:07.734Z,14.53
2019-03-23T09:19:16.254Z,55.67
2019-03-23T09:24:24.487Z,56.47
2019-03-23T09:29:30.280Z,53.63
2019-03-23T09:34:36.171Z,59.40
2019-03-23T09:39:43.308Z,55.87
2019-03-23T09:44:51.045Z,114.07
2019-03-23T09:49:59.462Z,55.37
2019-03-23T09:55:10.276Z,54.67
2019-03-23T10:00:21.230Z,51.03
2019-03-23T10:05:28.948Z,51.67
2019-03-23T10:10:36.007Z,53.23
2019-03-23T10:15:43.333Z,52.93
2019-03-23T10:20:50.468Z,55.73
2019-03-23T10:25:58.691Z,57.57
2019-03-23T10:31:05.021Z,63.07
2019-03-23T10:36:15.216Z,55.93
2019-03-23T10:41:24.960Z,57.00
2019-03-23T10:46:32.502Z,54.33
2019-03-23T10:52:15.460Z,54.93
2019-03-23T10:57:23.867Z,49.67
2019-03-23T11:02:33.723Z,53.83
2019-03-23T11:07:41.620Z,48.13
2019-03-23T11:12:51.231Z,34.30
2019-03-23T11:18:00.228Z,32.30
2019-03-23T11:23:50.787Z,36.63
2019-03-23T11:29:12.787Z,35.07
2019-03-23T11:34:18.667Z,31.40
2019-03-23T11:39:25.220Z,30.83
2019-03-23T11:44:32.234Z,37.13
2019-03-23T11:49:39.859Z,31.57
2019-03-23T11:54:47.278Z,32.50
2019-03-23T11:59:53.985Z,31.37
2019-03-23T12:04:59.877Z,34.03
2019-03-23T12:10:07.135Z,31.40
2019-03-23T12:15:17.023Z,33.30
2019-03-23T12:20:24.237Z,31.47
2019-03-23T12:25:32.386Z,31.83
2019-03-23T12:30:40.754Z,30.60
2019-03-23T12:35:49.224Z,17.67
2019-03-23T12:40:57.584Z,14.87
2019-03-23T12:46:04.973Z,16.03
2019-03-23T12:51:10.633Z,18.77
2019-03-23T12:56:20.067Z,17.77
2019-03-23T13:01:28.651Z,18.13
2019-03-23T13:06:34.394Z,19.73
2019-03-23T13:11:41.790Z,18.53
2019-03-23T13:16:50.079Z,22.47
2019-03-23T13:21:56.915Z,22.40
2019-03-23T13:27:03.902Z,21.20
2019-03-23T13:32:10.604Z,17.03
2019-03-23T13:37:16.580Z,16.10
2019-03-23T13:42:23.517Z,22.47
2019-03-23T13:47:30.072Z,23.80
2019-03-23T13:52:37.451Z,24.53
2019-03-23T13:57:45.400Z,14.40
2019-03-23T14:02:53.473Z,20.00
2019-03-23T14:07:59.580Z,16.83
2019-03-23T14:13:05.999Z,24.13
2019-03-23T14:18:13.480Z,22.03
2019-03-23T14:23:21.028Z,22.23
2019-03-23T14:28:28.466Z,16.23
2019-03-23T14:33:36.229Z,19.60
2019-03-23T14:38:43.080Z,37.10
2019-03-23T14:43:49.313Z,35.60
2019-03-23T14:48:55.715Z,40.00
2019-03-23T14:54:02.566Z,33.43
2019-03-23T14:59:10.027Z,35.83
2019-03-23T15:04:16.440Z,39.20
2019-03-23T15:09:21.529Z,32.50
2019-03-23T15:14:27.684Z,34.67
2019-03-23T15:19:33.852Z,34.90
2019-03-23T15:24:41.033Z,36.67
2019-03-23T15:29:46.928Z,36.60
2019-03-23T15:34:53.005Z,38.53
2019-03-23T15:39:59.597Z,35.03
2019-03-23T15:45:07.900Z,35.63
2019-03-23T15:50:16.656Z,37.67
2019-03-23T15:55:24.934Z,35.60
2019-03-23T16:00:32.537Z,33.27
2019-03-23T16:05:37.802Z,33.57
2019-03-23T16:10:43.906Z,35.47
2019-03-23T16:15:51.436Z,34.40
2019-03-23T16:20:58.882Z,36.93
2019-03-23T16:26:05.323Z,33.27
2019-03-23T16:31:12.266Z,19.37
2019-03-23T16:36:20.561Z,23.70
2019-03-23T16:41:28.660Z,24.77
2019-03-23T16:46:36.034Z,20.73
2019-03-23T16:51:42.705Z,18.20
2019-03-23T16:56:48.923Z,13.70
2019-03-23T17:01:56.701Z,26.33
2019-03-23T17:07:06.462Z,26.37
2019-03-23T17:12:14.416Z,27.90
2019-03-23T17:17:20.841Z,28.73
2019-03-23T17:22:26.981Z,23.93
2019-03-23T17:27:33.573Z,23.53
2019-03-23T17:32:41.804Z,26.63
2019-03-23T17:37:46.901Z,27.37
2019-03-23T17:42:53.772Z,26.13
2019-03-23T17:47:59.847Z,30.00
2019-03-23T17:53:07.884Z,28.83
2019-03-23T17:58:14.071Z,27.00
2019-03-23T18:03:48.326Z,28.17
2019-03-23T18:08:55.794Z,18.60
2019-03-23T18:14:02.038Z,18.53
2019-03-23T18:25:13.097Z,12.73
2019-03-23T18:30:35.849Z,7.03
2019-03-23T18:35:44.340Z,8.10
2019-03-23T18:40:49.811Z,7.23
2019-03-23T18:45:57.438Z,7.97
2019-03-23T18:51:04.132Z,7.83
2019-03-23T18:56:10.102Z,5.60
2019-03-23T19:01:30.965Z,7.57
2019-03-23T19:06:39.953Z,8.67
2019-03-23T19:11:47.033Z,10.17
2019-03-23T19:16:54.364Z,6.83
2019-03-23T19:22:02.570Z,7.87
2019-03-23T19:33:16.807Z,8.13
2019-03-23T19:38:22.917Z,8.90
2019-03-23T19:44:14.974Z,5.80
2019-03-23T19:49:37.685Z,5.33
2019-03-23T19:54:43.381Z,5.53
2019-03-23T19:59:50.851Z,5.80
2019-03-23T20:04:58.353Z,4.63
2019-03-23T20:10:06.276Z,4.77
2019-03-23T20:15:13.341Z,4.63
2019-03-23T20:20:20.617Z,3.50
2019-03-23T20:26:21.616Z,5.13
2019-03-23T20:37:04.419Z,2.57
2019-03-23T20:42:40.554Z,3.23
2019-03-23T20:47:49.946Z,2.23
2019-03-23T20:52:58.984Z,2.23
2019-03-23T21:04:09.694Z,2.90
2019-03-23T21:09:15.816Z,2.00
2019-03-23T21:14:22.384Z,1.73
2019-03-23T21:19:29.520Z,2.20
2019-03-23T21:24:36.811Z,1.50
2019-03-23T21:29:44.510Z,2.57
2019-03-23T21:34:55.071Z,2.23
2019-03-23T21:40:01.060Z,2.97
2019-03-23T21:45:08.040Z,4.50
2019-03-23T21:50:14.387Z,3.17
2019-03-23T21:55:22.424Z,2.33
2019-03-23T22:00:36.019Z,2.80
2019-03-23T22:05:45.148Z,5.73
2019-03-23T22:10:54.205Z,2.87
2019-03-23T22:16:00.471Z,2.40
2019-03-23T22:21:08.565Z,2.67
2019-03-23T22:26:15.465Z,3.00
2019-03-23T22:37:28.429Z,4.37
2019-03-23T22:42:35.365Z,2.77
2019-03-23T22:47:41.945Z,8.70
2019-03-23T22:52:49.493Z,3.97
2019-03-23T22:57:58.387Z,3.57
2019-03-23T23:03:05.701Z,9.17
2019-03-23T23:08:13.352Z,6.47
2019-03-23T23:13:19.981Z,5.87
2019-03-23T23:18:27.506Z,3.40
2019-03-23T23:23:36.108Z,4.23
2019-03-23T23:28:46.168Z,6.13
2019-03-23T23:33:55.124Z,4.27
2019-03-23T23:39:04.117Z,3.13
2019-03-23T23:44:13.324Z,4.53
2019-03-23T23:49:22.321Z,5.77
2019-03-23T23:54:28.458Z,4.30
2019-03-23T23:59:37.169Z,3.30
